sensor_id;sensor_type;location;lat;lon;timestamp;P1;durP1;ratioP1;P2;durP2;ratioP2
29370;SDS011;16357;52.188;7.838;2023-01-24T00:00:32;31.23;;;17.60;;
29370;SDS011;16357;52.188;7.838;2023-01-24T00:02:58;27.30;;;15.48;;
29370;SDS011;16357;52.188;7.838;2023-01-24T00:05:24;29.48;;;17.75;;
29370;SDS011;16357;52.188;7.838;2023-01-24T00:07:51;28.20;;;16.48;;
29370;SDS011;16357;52.188;7.838;2023-01-24T00:10:17;28.13;;;16.95;;
29370;SDS011;16357;52.188;7.838;2023-01-24T00:12:44;28.23;;;16.13;;
29370;SDS011;16357;52.188;7.838;2023-01-24T00:15:10;27.35;;;16.55;;
29370;SDS011;16357;52.188;7.838;2023-01-24T00:17:37;25.80;;;15.27;;
29370;SDS011;16357;52.188;7.838;2023-01-24T00:20:03;27.08;;;16.27;;
29370;SDS011;16357;52.188;7.838;2023-01-24T00:22:31;27.17;;;16.42;;
29370;SDS011;16357;52.188;7.838;2023-01-24T00:24:58;25.73;;;16.38;;
29370;SDS011;16357;52.188;7.838;2023-01-24T00:27:24;24.38;;;15.10;;
29370;SDS011;16357;52.188;7.838;2023-01-24T00:29:51;24.42;;;14.80;;
29370;SDS011;16357;52.188;7.838;2023-01-24T00:32:17;23.27;;;14.10;;
29370;SDS011;16357;52.188;7.838;2023-01-24T00:34:43;23.92;;;15.10;;
29370;SDS011;16357;52.188;7.838;2023-01-24T00:37:10;25.10;;;14.98;;
29370;SDS011;16357;52.188;7.838;2023-01-24T00:39:36;23.02;;;13.65;;
29370;SDS011;16357;52.188;7.838;2023-01-24T00:42:02;22.20;;;13.20;;
29370;SDS011;16357;52.188;7.838;2023-01-24T00:44:29;20.60;;;13.18;;
29370;SDS011;16357;52.188;7.838;2023-01-24T00:46:55;25.55;;;14.15;;
29370;SDS011;16357;52.188;7.838;2023-01-24T00:49:22;23.95;;;14.23;;
29370;SDS011;16357;52.188;7.838;2023-01-24T00:51:48;23.00;;;13.82;;
29370;SDS011;16357;52.188;7.838;2023-01-24T00:54:15;22.92;;;13.32;;
29370;SDS011;16357;52.188;7.838;2023-01-24T00:56:41;24.25;;;13.32;;
29370;SDS011;16357;52.188;7.838;2023-01-24T00:59:07;19.08;;;12.18;;
29370;SDS011;16357;52.188;7.838;2023-01-24T01:01:34;20.88;;;12.65;;
29370;SDS011;16357;52.188;7.838;2023-01-24T01:04:00;24.10;;;14.18;;
29370;SDS011;16357;52.188;7.838;2023-01-24T01:06:27;20.92;;;12.60;;
29370;SDS011;16357;52.188;7.838;2023-01-24T01:08:53;22.92;;;13.98;;
29370;SDS011;16357;52.188;7.838;2023-01-24T01:11:20;21.52;;;13.00;;
29370;SDS011;16357;52.188;7.838;2023-01-24T01:13:46;17.75;;;12.00;;
29370;SDS011;16357;52.188;7.838;2023-01-24T01:16:15;19.38;;;12.45;;
29370;SDS011;16357;52.188;7.838;2023-01-24T01:18:45;18.80;;;11.95;;
29370;SDS011;16357;52.188;7.838;2023-01-24T01:21:14;17.80;;;11.88;;
29370;SDS011;16357;52.188;7.838;2023-01-24T01:23:42;20.25;;;12.88;;
29370;SDS011;16357;52.188;7.838;2023-01-24T01:26:13;18.85;;;11.90;;
29370;SDS011;16357;52.188;7.838;2023-01-24T01:28:41;18.40;;;11.65;;
29370;SDS011;16357;52.188;7.838;2023-01-24T01:31:08;16.52;;;11.05;;
29370;SDS011;16357;52.188;7.838;2023-01-24T01:33:34;16.08;;;10.07;;
29370;SDS011;16357;52.188;7.838;2023-01-24T01:36:01;15.82;;;10.75;;
29370;SDS011;16357;52.188;7.838;2023-01-24T01:38:27;16.00;;;10.32;;
29370;SDS011;16357;52.188;7.838;2023-01-24T01:40:55;14.57;;;10.05;;
29370;SDS011;16357;52.188;7.838;2023-01-24T01:43:23;15.60;;;9.88;;
29370;SDS011;16357;52.188;7.838;2023-01-24T01:45:52;14.80;;;9.93;;
29370;SDS011;16357;52.188;7.838;2023-01-24T01:51:22;14.70;;;9.77;;
29370;SDS011;16357;52.188;7.838;2023-01-24T01:53:54;13.70;;;9.70;;
29370;SDS011;16357;52.188;7.838;2023-01-24T01:56:26;16.38;;;10.57;;
29370;SDS011;16357;52.188;7.838;2023-01-24T01:58:59;15.50;;;10.13;;
29370;SDS011;16357;52.188;7.838;2023-01-24T02:01:30;16.58;;;10.70;;
29370;SDS011;16357;52.188;7.838;2023-01-24T02:04:05;15.65;;;10.00;;
29370;SDS011;16357;52.188;7.838;2023-01-24T02:09:20;17.35;;;10.13;;
29370;SDS011;16357;52.188;7.838;2023-01-24T02:11:50;15.85;;;10.40;;
29370;SDS011;16357;52.188;7.838;2023-01-24T02:14:19;16.05;;;10.38;;
29370;SDS011;16357;52.188;7.838;2023-01-24T02:17:07;15.73;;;10.95;;
29370;SDS011;16357;52.188;7.838;2023-01-24T02:19:46;15.80;;;10.13;;
29370;SDS011;16357;52.188;7.838;2023-01-24T02:22:26;15.30;;;10.35;;
29370;SDS011;16357;52.188;7.838;2023-01-24T02:25:04;17.35;;;11.00;;
29370;SDS011;16357;52.188;7.838;2023-01-24T02:27:37;18.38;;;11.98;;
29370;SDS011;16357;52.188;7.838;2023-01-24T02:30:03;17.85;;;11.32;;
29370;SDS011;16357;52.188;7.838;2023-01-24T02:32:30;18.13;;;11.95;;
29370;SDS011;16357;52.188;7.838;2023-01-24T02:34:57;17.08;;;12.15;;
29370;SDS011;16357;52.188;7.838;2023-01-24T02:37:23;16.50;;;10.85;;
29370;SDS011;16357;52.188;7.838;2023-01-24T02:39:53;15.00;;;10.60;;
29370;SDS011;16357;52.188;7.838;2023-01-24T02:42:25;15.88;;;10.77;;
29370;SDS011;16357;52.188;7.838;2023-01-24T02:44:59;17.15;;;10.98;;
29370;SDS011;16357;52.188;7.838;2023-01-24T02:47:31;16.88;;;10.25;;
29370;SDS011;16357;52.188;7.838;2023-01-24T02:50:03;17.35;;;11.07;;
29370;SDS011;16357;52.188;7.838;2023-01-24T02:52:31;16.92;;;10.85;;
29370;SDS011;16357;52.188;7.838;2023-01-24T02:55:16;16.40;;;11.52;;
29370;SDS011;16357;52.188;7.838;2023-01-24T02:57:42;17.60;;;11.98;;
29370;SDS011;16357;52.188;7.838;2023-01-24T03:00:28;18.50;;;11.00;;
29370;SDS011;16357;52.188;7.838;2023-01-24T03:02:54;16.30;;;10.80;;
29370;SDS011;16357;52.188;7.838;2023-01-24T03:05:20;18.33;;;11.77;;
29370;SDS011;16357;52.188;7.838;2023-01-24T03:07:47;17.05;;;12.07;;
29370;SDS011;16357;52.188;7.838;2023-01-24T03:10:14;17.80;;;12.30;;
29370;SDS011;16357;52.188;7.838;2023-01-24T03:12:42;19.45;;;12.82;;
29370;SDS011;16357;52.188;7.838;2023-01-24T03:15:28;17.10;;;11.88;;
29370;SDS011;16357;52.188;7.838;2023-01-24T03:18:13;18.00;;;11.97;;
29370;SDS011;16357;52.188;7.838;2023-01-24T03:20:58;18.70;;;12.20;;
29370;SDS011;16357;52.188;7.838;2023-01-24T03:23:43;15.85;;;11.23;;
29370;SDS011;16357;52.188;7.838;2023-01-24T03:26:28;18.00;;;11.63;;
29370;SDS011;16357;52.188;7.838;2023-01-24T03:29:13;18.13;;;12.20;;
29370;SDS011;16357;52.188;7.838;2023-01-24T03:31:58;17.50;;;11.67;;
29370;SDS011;16357;52.188;7.838;2023-01-24T03:34:43;19.52;;;12.20;;
29370;SDS011;16357;52.188;7.838;2023-01-24T03:37:16;18.58;;;11.65;;
29370;SDS011;16357;52.188;7.838;2023-01-24T03:40:09;17.52;;;12.13;;
29370;SDS011;16357;52.188;7.838;2023-01-24T03:42:37;17.17;;;11.52;;
29370;SDS011;16357;52.188;7.838;2023-01-24T03:45:14;17.45;;;11.80;;
29370;SDS011;16357;52.188;7.838;2023-01-24T03:47:46;17.50;;;11.18;;
29370;SDS011;16357;52.188;7.838;2023-01-24T03:50:34;18.85;;;12.00;;
29370;SDS011;16357;52.188;7.838;2023-01-24T03:53:22;18.95;;;10.93;;
29370;SDS011;16357;52.188;7.838;2023-01-24T03:55:55;15.25;;;10.40;;
29370;SDS011;16357;52.188;7.838;2023-01-24T03:58:23;17.08;;;10.40;;
29370;SDS011;16357;52.188;7.838;2023-01-24T04:00:51;15.55;;;10.32;;
29370;SDS011;16357;52.188;7.838;2023-01-24T04:03:19;15.55;;;10.60;;
29370;SDS011;16357;52.188;7.838;2023-01-24T04:05:49;14.98;;;10.20;;
29370;SDS011;16357;52.188;7.838;2023-01-24T04:08:16;14.90;;;10.57;;
29370;SDS011;16357;52.188;7.838;2023-01-24T04:10:43;14.95;;;9.82;;
29370;SDS011;16357;52.188;7.838;2023-01-24T04:13:10;14.45;;;9.90;;
29370;SDS011;16357;52.188;7.838;2023-01-24T04:15:37;15.27;;;10.13;;
29370;SDS011;16357;52.188;7.838;2023-01-24T04:18:04;16.50;;;10.75;;
29370;SDS011;16357;52.188;7.838;2023-01-24T04:20:32;16.05;;;10.15;;
29370;SDS011;16357;52.188;7.838;2023-01-24T04:23:01;15.75;;;10.27;;
29370;SDS011;16357;52.188;7.838;2023-01-24T04:25:31;15.35;;;10.30;;
29370;SDS011;16357;52.188;7.838;2023-01-24T04:27:58;14.45;;;9.88;;
29370;SDS011;16357;52.188;7.838;2023-01-24T04:30:25;13.60;;;9.20;;
29370;SDS011;16357;52.188;7.838;2023-01-24T04:32:51;14.27;;;9.65;;
29370;SDS011;16357;52.188;7.838;2023-01-24T04:35:19;15.88;;;9.25;;
29370;SDS011;16357;52.188;7.838;2023-01-24T04:37:51;15.27;;;8.77;;
29370;SDS011;16357;52.188;7.838;2023-01-24T04:40:17;12.80;;;8.35;;
29370;SDS011;16357;52.188;7.838;2023-01-24T04:42:44;14.27;;;9.02;;
29370;SDS011;16357;52.188;7.838;2023-01-24T04:45:10;12.38;;;9.00;;
29370;SDS011;16357;52.188;7.838;2023-01-24T04:47:37;12.68;;;8.38;;
29370;SDS011;16357;52.188;7.838;2023-01-24T04:50:04;11.13;;;7.97;;
29370;SDS011;16357;52.188;7.838;2023-01-24T04:52:31;12.10;;;8.07;;
29370;SDS011;16357;52.188;7.838;2023-01-24T04:54:58;13.05;;;8.88;;
29370;SDS011;16357;52.188;7.838;2023-01-24T04:57:24;12.35;;;8.43;;
29370;SDS011;16357;52.188;7.838;2023-01-24T04:59:50;14.48;;;9.10;;
29370;SDS011;16357;52.188;7.838;2023-01-24T05:02:17;12.95;;;8.60;;
29370;SDS011;16357;52.188;7.838;2023-01-24T05:04:43;13.02;;;8.48;;
29370;SDS011;16357;52.188;7.838;2023-01-24T05:07:10;13.10;;;7.93;;
29370;SDS011;16357;52.188;7.838;2023-01-24T05:09:37;12.55;;;8.82;;
29370;SDS011;16357;52.188;7.838;2023-01-24T05:12:03;11.20;;;7.72;;
29370;SDS011;16357;52.188;7.838;2023-01-24T05:14:30;11.77;;;7.53;;
29370;SDS011;16357;52.188;7.838;2023-01-24T05:16:56;10.57;;;8.32;;
29370;SDS011;16357;52.188;7.838;2023-01-24T05:19:23;11.60;;;7.70;;
29370;SDS011;16357;52.188;7.838;2023-01-24T05:21:49;11.48;;;7.63;;
29370;SDS011;16357;52.188;7.838;2023-01-24T05:24:15;10.82;;;7.57;;
29370;SDS011;16357;52.188;7.838;2023-01-24T05:26:44;11.88;;;7.90;;
29370;SDS011;16357;52.188;7.838;2023-01-24T05:29:11;12.63;;;7.80;;
29370;SDS011;16357;52.188;7.838;2023-01-24T05:31:37;11.23;;;7.93;;
29370;SDS011;16357;52.188;7.838;2023-01-24T05:34:03;12.70;;;8.30;;
29370;SDS011;16357;52.188;7.838;2023-01-24T05:36:31;11.85;;;7.60;;
29370;SDS011;16357;52.188;7.838;2023-01-24T05:38:57;11.75;;;7.50;;
29370;SDS011;16357;52.188;7.838;2023-01-24T05:41:24;12.18;;;7.93;;
29370;SDS011;16357;52.188;7.838;2023-01-24T05:43:50;11.63;;;8.40;;
29370;SDS011;16357;52.188;7.838;2023-01-24T05:46:18;12.95;;;8.48;;
29370;SDS011;16357;52.188;7.838;2023-01-24T05:48:46;12.30;;;8.18;;
29370;SDS011;16357;52.188;7.838;2023-01-24T05:51:15;11.20;;;7.75;;
29370;SDS011;16357;52.188;7.838;2023-01-24T05:53:43;10.57;;;7.88;;
29370;SDS011;16357;52.188;7.838;2023-01-24T05:56:11;14.85;;;9.25;;
29370;SDS011;16357;52.188;7.838;2023-01-24T05:58:40;12.05;;;8.07;;
29370;SDS011;16357;52.188;7.838;2023-01-24T06:01:08;11.18;;;8.13;;
29370;SDS011;16357;52.188;7.838;2023-01-24T06:03:36;11.73;;;8.05;;
29370;SDS011;16357;52.188;7.838;2023-01-24T06:06:04;13.52;;;7.95;;
29370;SDS011;16357;52.188;7.838;2023-01-24T06:08:30;11.70;;;8.10;;
29370;SDS011;16357;52.188;7.838;2023-01-24T06:11:01;12.52;;;8.13;;
29370;SDS011;16357;52.188;7.838;2023-01-24T06:13:29;12.70;;;7.60;;
29370;SDS011;16357;52.188;7.838;2023-01-24T06:16:03;11.48;;;8.43;;
29370;SDS011;16357;52.188;7.838;2023-01-24T06:18:35;12.55;;;8.20;;
29370;SDS011;16357;52.188;7.838;2023-01-24T06:24:14;11.88;;;7.55;;
29370;SDS011;16357;52.188;7.838;2023-01-24T06:26:43;11.45;;;7.18;;
29370;SDS011;16357;52.188;7.838;2023-01-24T06:29:10;11.98;;;7.90;;
29370;SDS011;16357;52.188;7.838;2023-01-24T06:34:25;11.38;;;7.60;;
29370;SDS011;16357;52.188;7.838;2023-01-24T06:37:15;10.10;;;6.97;;
29370;SDS011;16357;52.188;7.838;2023-01-24T06:39:52;10.70;;;7.53;;
29370;SDS011;16357;52.188;7.838;2023-01-24T06:42:19;10.90;;;7.88;;
29370;SDS011;16357;52.188;7.838;2023-01-24T06:44:47;13.32;;;8.13;;
29370;SDS011;16357;52.188;7.838;2023-01-24T06:47:14;11.48;;;8.18;;
29370;SDS011;16357;52.188;7.838;2023-01-24T06:49:41;12.68;;;8.68;;
29370;SDS011;16357;52.188;7.838;2023-01-24T06:52:08;12.30;;;8.25;;
29370;SDS011;16357;52.188;7.838;2023-01-24T06:54:35;10.93;;;7.97;;
29370;SDS011;16357;52.188;7.838;2023-01-24T06:57:02;11.35;;;8.32;;
29370;SDS011;16357;52.188;7.838;2023-01-24T06:59:29;10.18;;;7.40;;
29370;SDS011;16357;52.188;7.838;2023-01-24T07:01:55;10.10;;;7.32;;
29370;SDS011;16357;52.188;7.838;2023-01-24T07:04:22;10.00;;;7.60;;
29370;SDS011;16357;52.188;7.838;2023-01-24T07:06:48;11.20;;;7.63;;
29370;SDS011;16357;52.188;7.838;2023-01-24T07:09:21;13.82;;;8.23;;
29370;SDS011;16357;52.188;7.838;2023-01-24T07:11:49;15.32;;;8.60;;
29370;SDS011;16357;52.188;7.838;2023-01-24T07:14:18;23.10;;;10.25;;
29370;SDS011;16357;52.188;7.838;2023-01-24T07:16:45;14.30;;;8.45;;
29370;SDS011;16357;52.188;7.838;2023-01-24T07:19:15;10.10;;;7.10;;
29370;SDS011;16357;52.188;7.838;2023-01-24T07:21:45;10.57;;;7.22;;
29370;SDS011;16357;52.188;7.838;2023-01-24T07:24:16;9.68;;;7.18;;
29370;SDS011;16357;52.188;7.838;2023-01-24T07:26:45;9.65;;;6.95;;
29370;SDS011;16357;52.188;7.838;2023-01-24T07:29:14;10.55;;;7.10;;
29370;SDS011;16357;52.188;7.838;2023-01-24T07:31:40;10.32;;;6.85;;
29370;SDS011;16357;52.188;7.838;2023-01-24T07:34:07;8.70;;;6.45;;
29370;SDS011;16357;52.188;7.838;2023-01-24T07:36:33;8.20;;;6.32;;
29370;SDS011;16357;52.188;7.838;2023-01-24T07:39:00;8.95;;;6.32;;
29370;SDS011;16357;52.188;7.838;2023-01-24T07:41:26;9.57;;;6.75;;
29370;SDS011;16357;52.188;7.838;2023-01-24T07:43:53;9.00;;;6.40;;
29370;SDS011;16357;52.188;7.838;2023-01-24T07:46:21;9.52;;;6.18;;
29370;SDS011;16357;52.188;7.838;2023-01-24T07:48:47;8.32;;;5.88;;
29370;SDS011;16357;52.188;7.838;2023-01-24T07:51:13;10.40;;;6.53;;
29370;SDS011;16357;52.188;7.838;2023-01-24T07:53:40;9.90;;;6.00;;
29370;SDS011;16357;52.188;7.838;2023-01-24T07:56:06;8.05;;;6.07;;
29370;SDS011;16357;52.188;7.838;2023-01-24T07:58:39;9.90;;;6.90;;
29370;SDS011;16357;52.188;7.838;2023-01-24T08:01:06;10.30;;;6.53;;
29370;SDS011;16357;52.188;7.838;2023-01-24T08:03:33;9.13;;;6.15;;
29370;SDS011;16357;52.188;7.838;2023-01-24T08:05:59;9.68;;;7.18;;
29370;SDS011;16357;52.188;7.838;2023-01-24T08:08:26;11.55;;;7.05;;
29370;SDS011;16357;52.188;7.838;2023-01-24T08:10:52;8.55;;;6.93;;
29370;SDS011;16357;52.188;7.838;2023-01-24T08:13:19;9.73;;;6.80;;
29370;SDS011;16357;52.188;7.838;2023-01-24T08:15:45;8.45;;;6.60;;
29370;SDS011;16357;52.188;7.838;2023-01-24T08:18:11;9.88;;;6.82;;
29370;SDS011;16357;52.188;7.838;2023-01-24T08:20:38;10.02;;;6.85;;
29370;SDS011;16357;52.188;7.838;2023-01-24T08:23:04;9.02;;;6.82;;
29370;SDS011;16357;52.188;7.838;2023-01-24T08:25:31;11.05;;;6.45;;
29370;SDS011;16357;52.188;7.838;2023-01-24T08:27:58;9.90;;;7.05;;
29370;SDS011;16357;52.188;7.838;2023-01-24T08:30:24;10.60;;;6.45;;
29370;SDS011;16357;52.188;7.838;2023-01-24T08:33:01;8.00;;;5.82;;
29370;SDS011;16357;52.188;7.838;2023-01-24T08:35:29;8.75;;;5.85;;
29370;SDS011;16357;52.188;7.838;2023-01-24T08:37:56;7.75;;;5.55;;
29370;SDS011;16357;52.188;7.838;2023-01-24T08:40:23;9.52;;;6.90;;
29370;SDS011;16357;52.188;7.838;2023-01-24T08:43:13;8.50;;;6.13;;
29370;SDS011;16357;52.188;7.838;2023-01-24T08:45:40;13.15;;;6.97;;
29370;SDS011;16357;52.188;7.838;2023-01-24T08:48:06;11.15;;;7.18;;
29370;SDS011;16357;52.188;7.838;2023-01-24T08:50:32;9.55;;;7.22;;
29370;SDS011;16357;52.188;7.838;2023-01-24T08:52:59;8.30;;;6.20;;
29370;SDS011;16357;52.188;7.838;2023-01-24T08:55:25;8.75;;;5.82;;
29370;SDS011;16357;52.188;7.838;2023-01-24T08:57:51;8.65;;;5.97;;
29370;SDS011;16357;52.188;7.838;2023-01-24T09:00:18;8.45;;;5.90;;
29370;SDS011;16357;52.188;7.838;2023-01-24T09:02:45;8.88;;;5.88;;
29370;SDS011;16357;52.188;7.838;2023-01-24T09:05:11;8.65;;;6.18;;
29370;SDS011;16357;52.188;7.838;2023-01-24T09:07:37;8.23;;;6.07;;
29370;SDS011;16357;52.188;7.838;2023-01-24T09:10:06;11.27;;;7.30;;
29370;SDS011;16357;52.188;7.838;2023-01-24T09:12:34;12.48;;;7.15;;
29370;SDS011;16357;52.188;7.838;2023-01-24T09:15:01;11.57;;;6.93;;
29370;SDS011;16357;52.188;7.838;2023-01-24T09:17:27;9.02;;;6.10;;
29370;SDS011;16357;52.188;7.838;2023-01-24T09:19:54;10.68;;;6.78;;
29370;SDS011;16357;52.188;7.838;2023-01-24T09:22:20;11.25;;;7.05;;
29370;SDS011;16357;52.188;7.838;2023-01-24T09:24:49;12.13;;;7.38;;
29370;SDS011;16357;52.188;7.838;2023-01-24T09:27:16;14.65;;;8.10;;
29370;SDS011;16357;52.188;7.838;2023-01-24T09:29:42;14.45;;;8.57;;
29370;SDS011;16357;52.188;7.838;2023-01-24T09:32:08;16.65;;;7.65;;
29370;SDS011;16357;52.188;7.838;2023-01-24T09:34:35;12.95;;;7.68;;
29370;SDS011;16357;52.188;7.838;2023-01-24T09:37:01;12.43;;;8.13;;
29370;SDS011;16357;52.188;7.838;2023-01-24T09:39:28;16.02;;;8.75;;
29370;SDS011;16357;52.188;7.838;2023-01-24T09:41:58;9.55;;;7.18;;
29370;SDS011;16357;52.188;7.838;2023-01-24T09:44:47;13.23;;;7.22;;
29370;SDS011;16357;52.188;7.838;2023-01-24T09:47:21;12.10;;;7.10;;
29370;SDS011;16357;52.188;7.838;2023-01-24T09:49:51;10.63;;;6.20;;
29370;SDS011;16357;52.188;7.838;2023-01-24T09:52:34;8.27;;;6.38;;
29370;SDS011;16357;52.188;7.838;2023-01-24T10:00:28;12.20;;;6.30;;
29370;SDS011;16357;52.188;7.838;2023-01-24T10:02:57;9.43;;;6.28;;
29370;SDS011;16357;52.188;7.838;2023-01-24T10:05:33;8.07;;;5.72;;
29370;SDS011;16357;52.188;7.838;2023-01-24T10:13:23;7.95;;;6.10;;
29370;SDS011;16357;52.188;7.838;2023-01-24T10:18:59;7.88;;;5.55;;
29370;SDS011;16357;52.188;7.838;2023-01-24T10:21:52;9.13;;;6.45;;
29370;SDS011;16357;52.188;7.838;2023-01-24T10:24:47;7.65;;;5.63;;
29370;SDS011;16357;52.188;7.838;2023-01-24T10:29:55;7.78;;;5.80;;
29370;SDS011;16357;52.188;7.838;2023-01-24T10:32:29;6.72;;;5.03;;
29370;SDS011;16357;52.188;7.838;2023-01-24T10:35:01;7.03;;;5.00;;
29370;SDS011;16357;52.188;7.838;2023-01-24T10:37:41;6.80;;;5.40;;
29370;SDS011;16357;52.188;7.838;2023-01-24T10:40:18;6.47;;;5.30;;
29370;SDS011;16357;52.188;7.838;2023-01-24T10:42:45;7.63;;;5.53;;
29370;SDS011;16357;52.188;7.838;2023-01-24T10:45:21;7.72;;;5.88;;
29370;SDS011;16357;52.188;7.838;2023-01-24T10:48:04;9.63;;;6.25;;
29370;SDS011;16357;52.188;7.838;2023-01-24T10:50:40;9.10;;;5.95;;
29370;SDS011;16357;52.188;7.838;2023-01-24T10:53:21;6.70;;;5.28;;
29370;SDS011;16357;52.188;7.838;2023-01-24T10:55:59;5.60;;;5.00;;
29370;SDS011;16357;52.188;7.838;2023-01-24T10:58:53;7.63;;;5.40;;
29370;SDS011;16357;52.188;7.838;2023-01-24T11:01:24;6.97;;;5.40;;
29370;SDS011;16357;52.188;7.838;2023-01-24T11:03:59;8.05;;;5.18;;
29370;SDS011;16357;52.188;7.838;2023-01-24T11:06:41;6.22;;;5.13;;
29370;SDS011;16357;52.188;7.838;2023-01-24T11:09:13;7.00;;;5.25;;
29370;SDS011;16357;52.188;7.838;2023-01-24T11:11:42;7.03;;;5.40;;
29370;SDS011;16357;52.188;7.838;2023-01-24T11:14:25;7.40;;;5.68;;
29370;SDS011;16357;52.188;7.838;2023-01-24T11:16:54;7.95;;;6.13;;
29370;SDS011;16357;52.188;7.838;2023-01-24T11:21:57;7.70;;;6.00;;
29370;SDS011;16357;52.188;7.838;2023-01-24T11:24:25;9.45;;;6.75;;
29370;SDS011;16357;52.188;7.838;2023-01-24T11:46:12;6.20;;;4.35;;
29370;SDS011;16357;52.188;7.838;2023-01-24T11:48:52;6.93;;;5.63;;
29370;SDS011;16357;52.188;7.838;2023-01-24T11:54:39;7.50;;;5.55;;
29370;SDS011;16357;52.188;7.838;2023-01-24T12:03:44;6.60;;;5.03;;
29370;SDS011;16357;52.188;7.838;2023-01-24T12:06:33;7.22;;;4.97;;
29370;SDS011;16357;52.188;7.838;2023-01-24T12:12:10;7.18;;;5.38;;
29370;SDS011;16357;52.188;7.838;2023-01-24T12:24:00;6.63;;;5.00;;
29370;SDS011;16357;52.188;7.838;2023-01-24T12:26:20;6.18;;;4.95;;
29370;SDS011;16357;52.188;7.838;2023-01-24T12:28:50;6.78;;;5.18;;
29370;SDS011;16357;52.188;7.838;2023-01-24T12:31:30;7.50;;;5.20;;
29370;SDS011;16357;52.188;7.838;2023-01-24T12:36:59;5.57;;;4.60;;
29370;SDS011;16357;52.188;7.838;2023-01-24T12:39:34;6.43;;;4.70;;
29370;SDS011;16357;52.188;7.838;2023-01-24T12:42:18;9.10;;;5.25;;
29370;SDS011;16357;52.188;7.838;2023-01-24T12:44:55;7.25;;;5.13;;
29370;SDS011;16357;52.188;7.838;2023-01-24T12:47:35;6.90;;;5.15;;
29370;SDS011;16357;52.188;7.838;2023-01-24T12:50:18;6.45;;;4.30;;
29370;SDS011;16357;52.188;7.838;2023-01-24T12:55:26;5.95;;;4.50;;
29370;SDS011;16357;52.188;7.838;2023-01-24T13:00:45;6.50;;;4.60;;
29370;SDS011;16357;52.188;7.838;2023-01-24T13:06:02;5.65;;;4.20;;
29370;SDS011;16357;52.188;7.838;2023-01-24T13:08:42;10.65;;;4.70;;
29370;SDS011;16357;52.188;7.838;2023-01-24T13:11:18;5.97;;;4.47;;
29370;SDS011;16357;52.188;7.838;2023-01-24T13:19:13;7.50;;;5.25;;
29370;SDS011;16357;52.188;7.838;2023-01-24T13:22:00;6.45;;;4.70;;
29370;SDS011;16357;52.188;7.838;2023-01-24T13:24:58;6.95;;;5.28;;
29370;SDS011;16357;52.188;7.838;2023-01-24T13:33:04;5.57;;;4.10;;
29370;SDS011;16357;52.188;7.838;2023-01-24T13:35:34;5.93;;;4.63;;
29370;SDS011;16357;52.188;7.838;2023-01-24T13:38:02;5.32;;;4.55;;
29370;SDS011;16357;52.188;7.838;2023-01-24T13:40:32;5.15;;;4.15;;
29370;SDS011;16357;52.188;7.838;2023-01-24T13:43:02;6.57;;;4.75;;
29370;SDS011;16357;52.188;7.838;2023-01-24T13:47:57;7.05;;;5.07;;
29370;SDS011;16357;52.188;7.838;2023-01-24T13:50:29;6.88;;;5.00;;
29370;SDS011;16357;52.188;7.838;2023-01-24T13:52:57;6.85;;;4.65;;
29370;SDS011;16357;52.188;7.838;2023-01-24T14:00:31;6.57;;;4.88;;
29370;SDS011;16357;52.188;7.838;2023-01-24T14:07:56;6.05;;;4.30;;
29370;SDS011;16357;52.188;7.838;2023-01-24T14:18:51;5.80;;;4.78;;
29370;SDS011;16357;52.188;7.838;2023-01-24T14:21:25;7.65;;;5.93;;
29370;SDS011;16357;52.188;7.838;2023-01-24T14:23:57;7.43;;;5.47;;
29370;SDS011;16357;52.188;7.838;2023-01-24T14:26:31;7.75;;;5.40;;
29370;SDS011;16357;52.188;7.838;2023-01-24T14:29:02;7.18;;;5.22;;
29370;SDS011;16357;52.188;7.838;2023-01-24T14:31:38;8.00;;;5.05;;
29370;SDS011;16357;52.188;7.838;2023-01-24T14:34:11;6.70;;;5.38;;
29370;SDS011;16357;52.188;7.838;2023-01-24T14:37:16;6.80;;;5.50;;
29370;SDS011;16357;52.188;7.838;2023-01-24T14:39:43;6.72;;;4.97;;
29370;SDS011;16357;52.188;7.838;2023-01-24T14:42:13;7.88;;;4.80;;
29370;SDS011;16357;52.188;7.838;2023-01-24T14:47:23;7.43;;;5.53;;
29370;SDS011;16357;52.188;7.838;2023-01-24T14:49:54;7.45;;;5.63;;
29370;SDS011;16357;52.188;7.838;2023-01-24T14:52:27;7.53;;;5.55;;
29370;SDS011;16357;52.188;7.838;2023-01-24T14:54:59;6.53;;;5.22;;
29370;SDS011;16357;52.188;7.838;2023-01-24T14:57:31;10.30;;;6.22;;
29370;SDS011;16357;52.188;7.838;2023-01-24T15:00:21;8.68;;;6.80;;
29370;SDS011;16357;52.188;7.838;2023-01-24T15:07:52;9.23;;;6.93;;
29370;SDS011;16357;52.188;7.838;2023-01-24T15:10:25;9.82;;;6.93;;
29370;SDS011;16357;52.188;7.838;2023-01-24T15:12:54;9.52;;;7.10;;
29370;SDS011;16357;52.188;7.838;2023-01-24T15:15:23;10.38;;;7.18;;
29370;SDS011;16357;52.188;7.838;2023-01-24T15:17:50;9.25;;;6.38;;
29370;SDS011;16357;52.188;7.838;2023-01-24T15:20:25;11.93;;;6.80;;
29370;SDS011;16357;52.188;7.838;2023-01-24T15:22:56;9.98;;;7.20;;
29370;SDS011;16357;52.188;7.838;2023-01-24T15:25:25;10.48;;;7.13;;
29370;SDS011;16357;52.188;7.838;2023-01-24T15:27:52;10.15;;;6.18;;
29370;SDS011;16357;52.188;7.838;2023-01-24T15:40:59;8.77;;;6.22;;
29370;SDS011;16357;52.188;7.838;2023-01-24T15:43:28;7.13;;;5.95;;
29370;SDS011;16357;52.188;7.838;2023-01-24T15:49:05;8.40;;;5.45;;
29370;SDS011;16357;52.188;7.838;2023-01-24T15:54:44;8.52;;;6.07;;
29370;SDS011;16357;52.188;7.838;2023-01-24T15:57:24;8.65;;;6.25;;
29370;SDS011;16357;52.188;7.838;2023-01-24T15:59:58;8.45;;;5.97;;
29370;SDS011;16357;52.188;7.838;2023-01-24T16:02:28;8.63;;;5.88;;
29370;SDS011;16357;52.188;7.838;2023-01-24T16:04:55;8.50;;;5.50;;
29370;SDS011;16357;52.188;7.838;2023-01-24T16:07:21;7.05;;;5.47;;
29370;SDS011;16357;52.188;7.838;2023-01-24T16:09:49;6.40;;;5.22;;
29370;SDS011;16357;52.188;7.838;2023-01-24T16:12:16;7.32;;;5.68;;
29370;SDS011;16357;52.188;7.838;2023-01-24T16:14:49;9.18;;;5.30;;
29370;SDS011;16357;52.188;7.838;2023-01-24T16:17:33;11.60;;;5.50;;
29370;SDS011;16357;52.188;7.838;2023-01-24T16:19:59;8.13;;;5.82;;
29370;SDS011;16357;52.188;7.838;2023-01-24T16:22:26;10.05;;;6.28;;
29370;SDS011;16357;52.188;7.838;2023-01-24T16:24:54;8.02;;;6.18;;
29370;SDS011;16357;52.188;7.838;2023-01-24T16:27:20;9.60;;;5.95;;
29370;SDS011;16357;52.188;7.838;2023-01-24T16:29:47;7.57;;;6.10;;
29370;SDS011;16357;52.188;7.838;2023-01-24T16:32:20;7.82;;;6.18;;
29370;SDS011;16357;52.188;7.838;2023-01-24T16:34:49;8.52;;;6.55;;
29370;SDS011;16357;52.188;7.838;2023-01-24T16:37:15;10.90;;;7.18;;
29370;SDS011;16357;52.188;7.838;2023-01-24T16:39:47;9.73;;;6.95;;
29370;SDS011;16357;52.188;7.838;2023-01-24T16:42:15;11.05;;;6.25;;
29370;SDS011;16357;52.188;7.838;2023-01-24T16:44:45;11.25;;;7.93;;
29370;SDS011;16357;52.188;7.838;2023-01-24T16:47:20;11.40;;;7.25;;
29370;SDS011;16357;52.188;7.838;2023-01-24T16:49:48;9.40;;;6.50;;
29370;SDS011;16357;52.188;7.838;2023-01-24T16:52:18;10.77;;;7.57;;
29370;SDS011;16357;52.188;7.838;2023-01-24T16:54:45;9.93;;;7.18;;
29370;SDS011;16357;52.188;7.838;2023-01-24T16:57:11;10.75;;;8.15;;
29370;SDS011;16357;52.188;7.838;2023-01-24T16:59:37;10.93;;;7.60;;
29370;SDS011;16357;52.188;7.838;2023-01-24T17:02:04;10.70;;;7.40;;
29370;SDS011;16357;52.188;7.838;2023-01-24T17:04:32;9.13;;;6.68;;
29370;SDS011;16357;52.188;7.838;2023-01-24T17:06:58;11.20;;;7.32;;
29370;SDS011;16357;52.188;7.838;2023-01-24T17:09:31;10.77;;;7.82;;
29370;SDS011;16357;52.188;7.838;2023-01-24T17:11:58;10.40;;;7.70;;
29370;SDS011;16357;52.188;7.838;2023-01-24T17:14:40;11.70;;;8.30;;